createdAt,value
2022-11-17T00:01:20.240Z,58.90
2022-11-17T00:03:48.117Z,58.83
2022-11-17T00:06:15.598Z,58.47
2022-11-17T00:08:42.819Z,59.72
2022-11-17T00:11:10.292Z,59.20
2022-11-17T00:13:56.009Z,59.82
2022-11-17T00:16:23.443Z,59.77
2022-11-17T00:19:09.311Z,59.67
2022-11-17T00:21:38.743Z,59.56
2022-11-17T00:24:06.365Z,60.64
2022-11-17T00:26:34.511Z,60.02
2022-11-17T00:29:04.621Z,59.33
2022-11-17T00:31:51.792Z,58.83
2022-11-17T00:34:22.810Z,59.83
2022-11-17T00:36:53.305Z,59.71
2022-11-17T00:39:21.688Z,60.09
2022-11-17T00:41:48.864Z,59.28
2022-11-17T00:44:17.673Z,59.21
2022-11-17T00:46:45.180Z,59.99
2022-11-17T00:49:12.787Z,59.18
2022-11-17T00:51:40.181Z,58.96
2022-11-17T00:54:08.124Z,59.48
2022-11-17T00:56:35.351Z,59.50
2022-11-17T00:59:02.567Z,60.63
2022-11-17T01:01:30.271Z,60.67
2022-11-17T01:04:05.430Z,59.55
2022-11-17T01:06:36.740Z,60.34
2022-11-17T01:09:05.141Z,61.41
2022-11-17T01:11:32.605Z,60.95
2022-11-17T01:14:00.229Z,60.12
2022-11-17T01:16:27.667Z,61.39
2022-11-17T01:18:55.261Z,62.56
2022-11-17T01:21:23.284Z,61.06
2022-11-17T01:23:52.077Z,61.50
2022-11-17T01:26:20.914Z,61.46
2022-11-17T01:28:48.272Z,61.36
2022-11-17T01:31:19.447Z,61.22
2022-11-17T01:33:47.176Z,63.27
2022-11-17T01:36:15.650Z,62.17
2022-11-17T01:38:43.048Z,62.82
2022-11-17T01:41:15.093Z,63.94
2022-11-17T01:43:43.642Z,63.11
2022-11-17T01:46:15.839Z,63.30
2022-11-17T01:48:43.223Z,63.92
2022-11-17T01:51:11.418Z,63.53
2022-11-17T01:53:39.242Z,63.02
2022-11-17T01:56:07.708Z,63.46
2022-11-17T01:58:36.516Z,63.28
2022-11-17T02:01:03.893Z,64.53
2022-11-17T02:03:33.154Z,63.83
2022-11-17T02:06:03.168Z,64.42
2022-11-17T02:08:30.815Z,64.35
2022-11-17T02:10:58.084Z,64.20
2022-11-17T02:13:25.580Z,63.94
2022-11-17T02:15:52.895Z,64.63
2022-11-17T02:18:20.195Z,64.08
2022-11-17T02:20:59.957Z,66.77
2022-11-17T02:23:37.609Z,65.46
2022-11-17T02:26:22.705Z,65.61
2022-11-17T02:29:10.179Z,65.20
2022-11-17T02:31:40.373Z,66.41
2022-11-17T02:34:46.628Z,65.11
2022-11-17T02:37:25.992Z,65.45
2022-11-17T02:40:00.324Z,64.79
2022-11-17T02:42:48.431Z,64.57
2022-11-17T02:45:20.493Z,63.74
2022-11-17T02:47:48.381Z,63.28
2022-11-17T02:50:15.563Z,63.58
2022-11-17T02:52:42.743Z,62.82
2022-11-17T02:55:10.534Z,63.15
2022-11-17T02:57:38.796Z,62.67
2022-11-17T03:00:07.768Z,63.99
2022-11-17T03:02:50.593Z,62.13
2022-11-17T03:05:23.494Z,61.78
2022-11-17T03:07:57.091Z,63.19
2022-11-17T03:10:47.596Z,63.68
2022-11-17T03:13:18.035Z,62.06
2022-11-17T03:15:55.469Z,62.34
2022-11-17T03:18:35.933Z,62.80
2022-11-17T03:21:10.667Z,62.14
2022-11-17T03:23:50.126Z,62.36
2022-11-17T03:26:18.980Z,62.54
2022-11-17T03:28:46.662Z,62.79
2022-11-17T03:31:13.902Z,64.25
2022-11-17T03:33:41.123Z,63.18
2022-11-17T03:36:19.186Z,63.02
2022-11-17T03:38:48.580Z,62.71
2022-11-17T03:41:16.073Z,64.48
2022-11-17T03:43:43.236Z,64.68
2022-11-17T03:46:10.978Z,65.38
2022-11-17T03:48:41.105Z,65.29
2022-11-17T03:51:09.535Z,64.96
2022-11-17T03:53:37.220Z,63.20
2022-11-17T03:56:23.962Z,62.31
2022-11-17T03:58:55.401Z,65.70
2022-11-17T04:01:23.060Z,67.41
2022-11-17T04:03:50.549Z,65.68
2022-11-17T04:06:17.730Z,63.86
2022-11-17T04:08:44.935Z,62.55
2022-11-17T04:11:31.005Z,64.29
2022-11-17T04:14:16.674Z,65.80
2022-11-17T04:16:44.142Z,65.36
2022-11-17T04:19:11.331Z,63.08
2022-11-17T04:21:38.561Z,62.41
2022-11-17T04:24:06.304Z,62.03
2022-11-17T04:26:52.422Z,61.54
2022-11-17T04:29:19.999Z,60.92
2022-11-17T04:31:47.239Z,60.64
2022-11-17T04:34:14.395Z,60.33
2022-11-17T04:36:45.216Z,61.53
2022-11-17T04:39:13.044Z,61.08
2022-11-17T04:42:03.081Z,60.06
2022-11-17T04:44:31.509Z,60.18
2022-11-17T04:46:58.827Z,61.99
2022-11-17T04:49:26.194Z,60.60
2022-11-17T04:51:53.744Z,62.58
2022-11-17T04:54:22.162Z,62.80
2022-11-17T04:56:49.363Z,63.40
2022-11-17T04:59:16.935Z,61.97
2022-11-17T05:01:44.217Z,61.80
2022-11-17T05:04:12.358Z,61.68
2022-11-17T05:06:41.232Z,61.80
2022-11-17T05:09:12.158Z,61.38
2022-11-17T05:11:58.675Z,61.81
2022-11-17T05:14:26.333Z,62.11
2022-11-17T05:17:10.506Z,61.79
2022-11-17T05:19:38.296Z,61.64
2022-11-17T05:22:28.689Z,61.26
2022-11-17T05:24:56.083Z,60.66
2022-11-17T05:27:23.982Z,60.40
2022-11-17T05:29:51.339Z,59.76
2022-11-17T05:32:18.545Z,60.35
2022-11-17T05:34:45.977Z,60.37
2022-11-17T05:37:13.182Z,59.65
2022-11-17T05:39:40.454Z,60.20
2022-11-17T05:42:08.000Z,60.26
2022-11-17T05:44:35.213Z,61.30
2022-11-17T05:47:02.408Z,60.25
2022-11-17T05:49:29.933Z,60.78
2022-11-17T05:51:57.091Z,60.81
2022-11-17T05:54:24.330Z,61.69
2022-11-17T05:56:51.949Z,61.03
2022-11-17T05:59:38.084Z,60.52
2022-11-17T06:02:10.236Z,60.83
2022-11-17T06:04:38.179Z,60.81
2022-11-17T06:07:05.443Z,60.77
2022-11-17T06:09:33.241Z,61.62
2022-11-17T06:12:05.613Z,61.55
2022-11-17T06:14:34.270Z,62.57
2022-11-17T06:17:22.794Z,62.88
2022-11-17T06:19:55.187Z,62.53
2022-11-17T06:22:22.824Z,61.84
2022-11-17T06:24:50.116Z,61.60
2022-11-17T06:27:17.523Z,61.22
2022-11-17T06:29:45.343Z,61.73
2022-11-17T06:32:13.620Z,60.86
2022-11-17T06:34:41.435Z,60.68
2022-11-17T06:37:08.892Z,59.58
2022-11-17T06:39:36.070Z,58.89
2022-11-17T06:42:03.333Z,58.78
2022-11-17T06:44:30.852Z,58.33
2022-11-17T06:46:58.080Z,58.81
2022-11-17T06:49:25.227Z,58.78
2022-11-17T06:51:53.135Z,60.87
2022-11-17T06:54:20.414Z,60.80
2022-11-17T06:56:49.694Z,60.90
2022-11-17T06:59:17.275Z,60.47
2022-11-17T07:01:44.508Z,59.05
2022-11-17T07:04:11.779Z,58.57
2022-11-17T07:06:39.398Z,57.53
2022-11-17T07:09:06.670Z,58.34
2022-11-17T07:11:34.610Z,58.13
2022-11-17T07:14:02.180Z,57.33
2022-11-17T07:16:30.794Z,57.81
2022-11-17T07:18:59.323Z,58.71
2022-11-17T07:21:26.952Z,59.66
2022-11-17T07:23:54.158Z,60.79
2022-11-17T07:26:21.405Z,61.33
2022-11-17T07:28:48.897Z,62.40
2022-11-17T07:31:16.691Z,62.73
2022-11-17T07:33:43.924Z,63.15
2022-11-17T07:36:12.305Z,62.88
2022-11-17T07:38:40.172Z,63.06
2022-11-17T07:41:08.858Z,63.18
2022-11-17T07:43:36.666Z,62.63
2022-11-17T07:46:04.484Z,61.61
2022-11-17T07:48:32.759Z,62.28
2022-11-17T07:51:00.558Z,64.51
2022-11-17T07:53:28.095Z,64.46
2022-11-17T07:55:55.554Z,64.45
2022-11-17T07:58:25.563Z,65.17
2022-11-17T08:00:53.575Z,64.71
2022-11-17T08:03:21.100Z,63.15
2022-11-17T08:05:48.367Z,64.29
2022-11-17T08:08:15.623Z,63.69
2022-11-17T08:10:43.159Z,63.61
2022-11-17T08:13:11.363Z,62.60
2022-11-17T08:15:38.557Z,63.18
2022-11-17T08:18:06.354Z,64.04
2022-11-17T08:20:33.893Z,63.65
2022-11-17T08:23:01.096Z,64.04
2022-11-17T08:25:28.588Z,64.50
2022-11-17T08:27:56.257Z,64.93
2022-11-17T08:30:24.018Z,63.72
2022-11-17T08:32:52.598Z,62.77
2022-11-17T08:35:21.165Z,62.26
2022-11-17T08:37:48.422Z,61.25
2022-11-17T08:40:15.995Z,62.55
2022-11-17T08:42:43.207Z,61.21
2022-11-17T08:45:10.747Z,61.27
2022-11-17T08:47:38.220Z,60.89
2022-11-17T08:50:05.929Z,60.98
2022-11-17T08:52:33.207Z,60.93
2022-11-17T08:55:00.808Z,63.07
2022-11-17T08:57:31.623Z,62.87
2022-11-17T08:59:58.943Z,61.68
2022-11-17T09:02:26.410Z,61.52
2022-11-17T09:04:53.711Z,60.33
2022-11-17T09:07:20.972Z,59.99
2022-11-17T09:09:48.710Z,59.89
2022-11-17T09:12:16.128Z,60.52
2022-11-17T09:14:43.828Z,60.33
2022-11-17T09:17:11.257Z,61.37
2022-11-17T09:19:38.440Z,61.48
2022-11-17T09:22:06.282Z,60.73
2022-11-17T09:24:33.786Z,60.30
2022-11-17T09:27:03.021Z,59.15
2022-11-17T09:29:30.454Z,59.72
2022-11-17T09:31:58.007Z,59.45
2022-11-17T09:34:25.664Z,58.43
2022-11-17T09:36:52.889Z,57.75
2022-11-17T09:39:21.429Z,57.88
2022-11-17T09:41:49.742Z,57.60
2022-11-17T09:44:20.015Z,58.50
2022-11-17T09:47:06.155Z,58.49
2022-11-17T09:49:42.564Z,57.93
2022-11-17T09:52:12.815Z,58.01
2022-11-17T09:54:43.886Z,59.58
2022-11-17T09:57:21.360Z,58.34
2022-11-17T09:59:49.973Z,58.82
2022-11-17T10:02:17.548Z,58.40
2022-11-17T10:04:45.019Z,58.32
2022-11-17T10:07:12.240Z,55.58
2022-11-17T10:09:41.680Z,54.06
2022-11-17T10:12:20.229Z,52.76
2022-11-17T10:14:50.693Z,55.06
2022-11-17T10:17:18.363Z,53.35
2022-11-17T10:19:45.593Z,51.67
2022-11-17T10:22:16.678Z,52.71
2022-11-17T10:24:47.598Z,52.39
2022-11-17T10:27:17.973Z,51.87
2022-11-17T10:29:58.700Z,53.10
2022-11-17T10:32:26.700Z,52.76
2022-11-17T10:34:55.144Z,53.40
2022-11-17T10:37:27.031Z,52.67
2022-11-17T10:40:09.205Z,52.40
2022-11-17T10:42:36.769Z,52.42
2022-11-17T10:45:04.382Z,53.20
2022-11-17T10:47:39.152Z,54.10
2022-11-17T10:50:12.358Z,52.59
2022-11-17T10:52:39.597Z,52.15
2022-11-17T10:55:22.539Z,52.76
2022-11-17T10:57:57.165Z,52.98
2022-11-17T11:00:28.471Z,51.92
2022-11-17T11:03:06.529Z,52.83
2022-11-17T11:05:33.997Z,53.08
2022-11-17T11:08:15.139Z,54.11
2022-11-17T11:10:42.582Z,53.64
2022-11-17T11:13:12.813Z,53.61
2022-11-17T11:15:40.168Z,52.49
2022-11-17T11:18:11.813Z,53.73
2022-11-17T11:20:59.895Z,52.84
2022-11-17T11:23:31.371Z,53.05
2022-11-17T11:26:11.253Z,52.98
2022-11-17T11:28:44.325Z,51.44
2022-11-17T11:31:33.379Z,52.08
2022-11-17T11:34:05.709Z,51.95
2022-11-17T11:36:53.143Z,52.80
2022-11-17T11:39:35.979Z,52.54
2022-11-17T11:42:07.784Z,51.85
2022-11-17T11:44:47.545Z,51.47
2022-11-17T11:47:33.757Z,54.60
2022-11-17T11:50:13.381Z,52.89
2022-11-17T11:52:40.862Z,52.14
2022-11-17T11:55:27.195Z,52.41
2022-11-17T11:58:00.490Z,50.88
2022-11-17T12:00:27.988Z,50.83
2022-11-17T12:03:18.805Z,51.11
2022-11-17T12:05:46.088Z,51.76
2022-11-17T12:08:28.920Z,51.27
2022-11-17T12:11:25.200Z,50.61
2022-11-17T12:13:54.441Z,52.88
2022-11-17T12:16:29.234Z,51.85
2022-11-17T12:18:56.739Z,51.54
2022-11-17T12:21:24.783Z,51.42
2022-11-17T12:24:08.412Z,52.63
2022-11-17T12:26:36.502Z,51.49
2022-11-17T12:29:22.206Z,50.18
2022-11-17T12:31:49.681Z,50.61
2022-11-17T12:34:23.074Z,49.98
2022-11-17T12:37:23.107Z,50.22
2022-11-17T12:40:00.412Z,51.16
2022-11-17T12:42:28.539Z,49.06
2022-11-17T12:44:56.823Z,50.17
2022-11-17T12:47:24.975Z,50.21
2022-11-17T12:49:52.535Z,51.04
2022-11-17T12:52:45.888Z,49.11
2022-11-17T12:55:28.548Z,51.03
2022-11-17T12:58:16.007Z,49.33
2022-11-17T13:00:52.868Z,49.63
2022-11-17T13:03:26.420Z,49.47
2022-11-17T13:06:33.808Z,49.46
2022-11-17T13:09:01.057Z,49.57
2022-11-17T13:11:28.876Z,49.62
2022-11-17T13:14:08.779Z,49.47
2022-11-17T13:16:37.433Z,49.73
2022-11-17T13:19:21.681Z,49.85
2022-11-17T13:21:49.202Z,49.77
2022-11-17T13:24:28.083Z,50.18
2022-11-17T13:26:59.560Z,49.53
2022-11-17T13:29:26.838Z,49.20
2022-11-17T13:32:13.709Z,49.51
2022-11-17T13:34:48.353Z,49.62
2022-11-17T13:37:18.390Z,49.19
2022-11-17T13:39:55.758Z,48.74
2022-11-17T13:42:23.626Z,48.55
2022-11-17T13:44:51.138Z,48.81
2022-11-17T13:47:28.510Z,48.59
2022-11-17T13:49:56.011Z,48.26
2022-11-17T13:52:46.934Z,48.47
2022-11-17T13:55:16.375Z,47.88
2022-11-17T13:57:51.556Z,47.69
2022-11-17T14:00:19.161Z,47.91
2022-11-17T14:02:57.076Z,47.83
2022-11-17T14:05:26.599Z,47.94
2022-11-17T14:07:54.629Z,48.19
2022-11-17T14:10:21.919Z,47.78
2022-11-17T14:12:49.693Z,47.58
2022-11-17T14:15:23.306Z,47.58
2022-11-17T14:17:51.011Z,47.78
2022-11-17T14:20:38.885Z,48.19
2022-11-17T14:23:09.083Z,48.12
2022-11-17T14:25:40.280Z,48.21
2022-11-17T14:28:14.390Z,48.02
2022-11-17T14:30:41.995Z,47.98
2022-11-17T14:33:13.334Z,48.17
2022-11-17T14:35:41.137Z,47.80
2022-11-17T14:38:15.782Z,47.93
2022-11-17T14:40:42.978Z,47.22
2022-11-17T14:43:10.452Z,47.46
2022-11-17T14:45:37.680Z,47.79
2022-11-17T14:48:07.938Z,47.44
2022-11-17T14:50:35.426Z,47.99
2022-11-17T14:53:02.622Z,48.11
2022-11-17T14:55:29.906Z,47.49
2022-11-17T14:57:57.405Z,47.03
2022-11-17T15:00:24.594Z,47.22
2022-11-17T15:02:51.792Z,47.29
2022-11-17T15:05:19.315Z,47.45
2022-11-17T15:07:46.522Z,47.45
2022-11-17T15:10:13.727Z,47.15
2022-11-17T15:12:41.207Z,46.98
2022-11-17T15:15:08.836Z,47.78
2022-11-17T15:17:36.111Z,47.48
2022-11-17T15:20:04.150Z,47.59
2022-11-17T15:22:31.382Z,48.11
2022-11-17T15:24:58.605Z,47.71
2022-11-17T15:27:26.134Z,48.17
2022-11-17T15:29:54.080Z,48.14
2022-11-17T15:32:21.359Z,48.45
2022-11-17T15:34:48.851Z,48.52
2022-11-17T15:37:16.058Z,48.79
2022-11-17T15:39:43.395Z,49.34
2022-11-17T15:42:10.898Z,49.47
2022-11-17T15:44:38.108Z,49.71
2022-11-17T15:47:06.134Z,49.28
2022-11-17T15:49:33.703Z,49.62
2022-11-17T15:52:00.939Z,49.81
2022-11-17T15:54:28.176Z,50.78
2022-11-17T15:56:55.731Z,50.40
2022-11-17T15:59:22.988Z,50.70
2022-11-17T16:01:50.195Z,51.22
2022-11-17T16:04:18.111Z,51.44
2022-11-17T16:06:45.979Z,51.70
2022-11-17T16:09:13.597Z,52.43
2022-11-17T16:11:41.326Z,52.02
2022-11-17T16:14:08.856Z,52.75
2022-11-17T16:16:37.203Z,53.16
2022-11-17T16:19:04.896Z,52.84
2022-11-17T16:21:32.278Z,52.15
2022-11-17T16:24:00.845Z,51.36
2022-11-17T16:26:28.568Z,52.26
2022-11-17T16:28:56.764Z,51.69
2022-11-17T16:31:24.783Z,52.41
2022-11-17T16:33:53.503Z,52.54
2022-11-17T16:36:21.855Z,53.72
2022-11-17T16:39:01.778Z,53.97
2022-11-17T16:41:31.353Z,54.70
2022-11-17T16:43:58.817Z,55.22
2022-11-17T16:46:27.140Z,56.00
2022-11-17T16:48:54.676Z,58.06
2022-11-17T16:51:21.966Z,59.20
2022-11-17T16:53:54.749Z,58.49
2022-11-17T16:56:22.290Z,58.27
2022-11-17T16:58:50.193Z,60.13
2022-11-17T17:01:24.495Z,61.15
2022-11-17T17:03:58.594Z,65.08
2022-11-17T17:06:26.058Z,64.66
2022-11-17T17:08:57.970Z,63.46
2022-11-17T17:11:25.465Z,62.91
2022-11-17T17:13:52.699Z,64.97
2022-11-17T17:16:20.517Z,65.05
2022-11-17T17:18:47.757Z,64.74
2022-11-17T17:21:16.079Z,63.73
2022-11-17T17:23:45.241Z,64.08
2022-11-17T17:26:18.208Z,64.24
2022-11-17T17:28:46.379Z,64.10
2022-11-17T17:31:20.772Z,63.24
2022-11-17T17:33:50.507Z,63.52
2022-11-17T17:36:18.623Z,60.87
2022-11-17T17:38:50.308Z,60.37
2022-11-17T17:41:22.430Z,60.69
2022-11-17T17:43:54.076Z,60.17
2022-11-17T17:46:21.663Z,59.74
2022-11-17T17:48:49.516Z,58.64
2022-11-17T17:51:18.259Z,58.14
2022-11-17T17:53:46.400Z,58.00
2022-11-17T17:56:14.132Z,58.63
2022-11-17T17:58:41.541Z,60.57
2022-11-17T18:01:14.127Z,62.91
2022-11-17T18:03:48.392Z,62.01
2022-11-17T18:06:16.664Z,61.27
2022-11-17T18:08:44.491Z,60.09
2022-11-17T18:11:12.704Z,58.51
2022-11-17T18:13:41.517Z,59.16
2022-11-17T18:16:13.503Z,58.50
2022-11-17T18:18:41.071Z,58.79
2022-11-17T18:21:09.605Z,60.05
2022-11-17T18:23:37.683Z,58.61
2022-11-17T18:26:12.182Z,61.05
2022-11-17T18:28:39.806Z,61.07
2022-11-17T18:31:08.158Z,61.01
2022-11-17T18:33:35.765Z,61.11
2022-11-17T18:36:04.344Z,62.98
2022-11-17T18:38:31.942Z,62.47
2022-11-17T18:41:03.355Z,64.56
2022-11-17T18:43:31.702Z,63.58
2022-11-17T18:46:03.130Z,66.91
2022-11-17T18:48:34.737Z,66.07
2022-11-17T18:51:19.070Z,67.83
2022-11-17T18:53:47.617Z,67.40
2022-11-17T18:56:15.905Z,68.52
2022-11-17T18:58:43.487Z,68.82
2022-11-17T19:01:14.053Z,69.47
2022-11-17T19:03:42.390Z,69.89
2022-11-17T19:06:09.851Z,69.25
2022-11-17T19:08:37.649Z,70.35
2022-11-17T19:11:06.357Z,68.47
2022-11-17T19:13:35.062Z,69.07
2022-11-17T19:16:06.382Z,70.90
2022-11-17T19:18:33.892Z,70.62
2022-11-17T19:21:04.955Z,70.03
2022-11-17T19:23:33.675Z,69.42
2022-11-17T19:26:08.444Z,68.65
2022-11-17T19:28:36.470Z,67.93
2022-11-17T19:31:07.572Z,68.00
2022-11-17T19:33:35.625Z,68.77
2022-11-17T19:36:07.396Z,69.47
2022-11-17T19:38:35.202Z,68.48
2022-11-17T19:41:03.718Z,67.73
2022-11-17T19:43:32.578Z,68.27
2022-11-17T19:46:01.002Z,70.35
2022-11-17T19:48:29.656Z,70.10
2022-11-17T19:50:57.395Z,69.60
2022-11-17T19:53:24.913Z,67.42
2022-11-17T19:55:52.838Z,66.22
2022-11-17T19:58:20.618Z,66.85
2022-11-17T20:00:48.953Z,64.69
2022-11-17T20:03:16.552Z,63.04
2022-11-17T20:05:44.269Z,63.48
2022-11-17T20:08:11.889Z,63.91
2022-11-17T20:10:39.498Z,62.00
2022-11-17T20:13:06.914Z,64.28
2022-11-17T20:15:35.103Z,61.72
2022-11-17T20:18:02.879Z,61.20
2022-11-17T20:20:30.235Z,63.97
2022-11-17T20:22:57.571Z,62.34
2022-11-17T20:25:25.378Z,61.01
2022-11-17T20:27:52.846Z,60.70
2022-11-17T20:30:20.460Z,59.95
2022-11-17T20:32:48.179Z,59.85
2022-11-17T20:35:15.587Z,59.10
2022-11-17T20:37:42.986Z,58.77
2022-11-17T20:40:11.349Z,59.11
2022-11-17T20:42:38.635Z,58.73
2022-11-17T20:45:06.384Z,58.27
2022-11-17T20:47:34.412Z,58.04
2022-11-17T20:50:01.772Z,57.95
2022-11-17T20:52:29.216Z,58.61
2022-11-17T20:54:56.810Z,57.79
2022-11-17T20:57:24.057Z,58.04
2022-11-17T20:59:51.359Z,58.85
2022-11-17T21:02:18.856Z,58.38
2022-11-17T21:04:46.089Z,57.95
2022-11-17T21:07:13.701Z,57.56
2022-11-17T21:09:41.195Z,57.50
2022-11-17T21:12:08.618Z,57.38
2022-11-17T21:14:35.926Z,56.99
2022-11-17T21:17:03.727Z,57.08
2022-11-17T21:19:32.415Z,57.28
2022-11-17T21:22:01.523Z,57.12
2022-11-17T21:24:29.174Z,56.85
2022-11-17T21:26:56.960Z,57.46
2022-11-17T21:29:24.185Z,56.34
2022-11-17T21:31:51.708Z,56.43
2022-11-17T21:34:19.096Z,56.79
2022-11-17T21:36:46.421Z,56.95
2022-11-17T21:39:18.446Z,56.40
2022-11-17T21:41:46.120Z,56.34
2022-11-17T21:44:14.245Z,56.37
2022-11-17T21:46:41.534Z,57.30
2022-11-17T21:49:08.849Z,57.53
2022-11-17T21:51:38.625Z,57.65
2022-11-17T21:54:07.317Z,56.94
2022-11-17T21:56:36.510Z,57.00
2022-11-17T21:59:04.935Z,56.66
2022-11-17T22:01:32.903Z,56.63
2022-11-17T22:04:00.549Z,56.25
2022-11-17T22:06:28.094Z,56.38
2022-11-17T22:08:55.613Z,56.09
2022-11-17T22:11:36.668Z,56.47
2022-11-17T22:14:14.408Z,56.78
2022-11-17T22:16:42.656Z,56.39
2022-11-17T22:19:10.276Z,56.64
2022-11-17T22:21:37.909Z,56.17
2022-11-17T22:24:06.143Z,56.22
2022-11-17T22:26:35.840Z,56.07
2022-11-17T22:29:03.119Z,55.87
2022-11-17T22:31:30.609Z,55.80
2022-11-17T22:33:57.826Z,55.44
2022-11-17T22:36:25.052Z,55.57
2022-11-17T22:38:52.668Z,55.58
2022-11-17T22:41:20.747Z,55.53
2022-11-17T22:43:51.492Z,55.51
2022-11-17T22:46:19.445Z,55.76
2022-11-17T22:48:46.841Z,55.92
2022-11-17T22:51:34.374Z,56.09
2022-11-17T22:54:01.905Z,55.78
2022-11-17T22:56:29.137Z,56.70
2022-11-17T22:58:59.684Z,56.18
2022-11-17T23:01:27.527Z,55.99
2022-11-17T23:03:54.802Z,55.82
2022-11-17T23:06:24.754Z,56.10
2022-11-17T23:08:52.221Z,57.04
2022-11-17T23:11:36.433Z,57.03
2022-11-17T23:14:05.577Z,57.05
2022-11-17T23:16:33.255Z,57.06
2022-11-17T23:19:00.522Z,57.54
2022-11-17T23:21:28.061Z,57.53
2022-11-17T23:23:55.381Z,56.70
2022-11-17T23:26:22.742Z,56.83
2022-11-17T23:28:50.267Z,57.79
2022-11-17T23:31:17.690Z,57.09
2022-11-17T23:33:45.539Z,57.69
2022-11-17T23:36:14.113Z,57.06
2022-11-17T23:38:41.321Z,56.66
2022-11-17T23:41:09.458Z,56.42
2022-11-17T23:43:36.939Z,56.95
2022-11-17T23:46:04.789Z,55.86
2022-11-17T23:48:31.993Z,56.11
2022-11-17T23:50:59.501Z,56.40
2022-11-17T23:53:26.674Z,55.95
2022-11-17T23:55:54.574Z,55.16
2022-11-17T23:58:22.222Z,55.29
